createdAt,value
2022-10-15T00:09:06.137Z,14.1
2022-10-15T00:14:12.355Z,14.0
2022-10-15T00:19:18.562Z,13.9
2022-10-15T00:24:24.769Z,13.9
2022-10-15T00:29:30.984Z,13.8
2022-10-15T00:34:37.189Z,13.7
2022-10-15T00:39:43.408Z,13.6
2022-10-15T00:44:49.600Z,13.6
2022-10-15T00:49:55.819Z,13.5
2022-10-15T00:55:02.020Z,13.5
2022-10-15T01:00:08.225Z,13.4
2022-10-15T01:05:14.433Z,13.3
2022-10-15T01:10:20.660Z,13.3
2022-10-15T01:15:26.847Z,13.2
2022-10-15T01:20:33.056Z,13.2
2022-10-15T01:25:39.303Z,13.2
2022-10-15T01:30:45.482Z,13.3
2022-10-15T01:35:50.711Z,13.3
2022-10-15T01:40:56.953Z,13.4
2022-10-15T01:46:02.170Z,13.5
2022-10-15T01:51:08.384Z,13.6
2022-10-15T01:56:14.577Z,13.8
2022-10-15T02:01:20.824Z,13.9
2022-10-15T02:06:26.993Z,14.0
2022-10-15T02:11:33.192Z,14.2
2022-10-15T02:16:39.405Z,14.3
2022-10-15T02:26:51.820Z,14.4
2022-10-15T02:31:58.028Z,14.5
2022-10-15T02:37:04.249Z,14.6
2022-10-15T02:47:16.743Z,14.7
2022-10-15T02:52:22.454Z,14.7
2022-10-15T02:57:34.241Z,14.8
2022-10-15T03:02:46.572Z,14.8
2022-10-15T03:07:58.893Z,14.9
2022-10-15T03:13:11.231Z,14.9
2022-10-15T03:18:23.559Z,14.9
2022-10-15T03:23:35.052Z,14.9
2022-10-15T03:28:41.207Z,14.9
2022-10-15T03:33:47.348Z,14.9
2022-10-15T03:38:53.565Z,14.9
2022-10-15T03:43:59.778Z,14.8
2022-10-15T03:49:05.981Z,14.8
2022-10-15T03:54:12.203Z,14.8
2022-10-15T03:59:18.409Z,14.8
2022-10-15T04:04:24.629Z,14.8
2022-10-15T04:09:30.832Z,14.8
2022-10-15T04:14:37.046Z,14.8
2022-10-15T04:19:43.260Z,14.8
2022-10-15T04:24:49.473Z,14.8
2022-10-15T04:29:55.686Z,14.8
2022-10-15T04:35:01.905Z,14.8
2022-10-15T04:40:08.119Z,14.8
2022-10-15T04:45:14.387Z,14.9
2022-10-15T04:50:20.533Z,14.9
2022-10-15T04:55:26.758Z,14.9
2022-10-15T05:00:32.969Z,14.9
2022-10-15T05:05:39.183Z,15.0
2022-10-15T05:10:44.425Z,15.0
2022-10-15T05:15:50.636Z,15.0
2022-10-15T05:20:55.875Z,15.0
2022-10-15T05:26:02.101Z,15.1
2022-10-15T05:31:08.314Z,15.1
2022-10-15T05:36:14.526Z,15.2
2022-10-15T05:41:20.738Z,15.2
2022-10-15T05:46:26.944Z,15.2
2022-10-15T05:51:33.161Z,15.3
2022-10-15T05:56:39.381Z,15.3
2022-10-15T06:01:45.637Z,15.3
2022-10-15T06:06:51.805Z,15.3
2022-10-15T06:11:58.032Z,15.3
2022-10-15T06:17:04.235Z,15.4
2022-10-15T06:22:10.452Z,15.4
2022-10-15T06:27:16.660Z,15.5
2022-10-15T06:32:22.875Z,15.5
2022-10-15T06:37:29.076Z,15.5
2022-10-15T06:42:35.288Z,15.5
2022-10-15T06:47:41.502Z,15.5
2022-10-15T06:52:47.763Z,15.5
2022-10-15T06:57:53.927Z,15.6
2022-10-15T07:03:00.154Z,15.6
2022-10-15T07:08:05.385Z,15.6
2022-10-15T07:13:11.597Z,15.7
2022-10-15T07:23:25.619Z,15.7
2022-10-15T07:28:28.292Z,15.8
2022-10-15T07:33:34.507Z,15.8
2022-10-15T07:38:40.713Z,15.9
2022-10-15T07:43:46.907Z,15.9
2022-10-15T07:48:53.150Z,16.0
2022-10-15T07:53:59.318Z,16.0
2022-10-15T07:59:05.528Z,16.1
2022-10-15T08:04:11.736Z,16.1
2022-10-15T08:09:17.950Z,16.2
2022-10-15T08:14:24.152Z,16.3
2022-10-15T08:19:30.360Z,16.3
2022-10-15T08:24:36.584Z,16.4
2022-10-15T08:29:42.774Z,16.5
2022-10-15T08:34:48.986Z,16.6
2022-10-15T08:39:55.193Z,16.7
2022-10-15T08:45:01.399Z,16.9
2022-10-15T08:50:07.609Z,17.0
2022-10-15T08:55:13.894Z,17.1
2022-10-15T09:00:20.037Z,17.2
2022-10-15T09:05:26.233Z,17.3
2022-10-15T09:10:32.448Z,17.4
2022-10-15T09:15:37.682Z,17.5
2022-10-15T09:20:44.133Z,17.6
2022-10-15T09:25:50.096Z,17.7
2022-10-15T09:30:56.308Z,17.8
2022-10-15T09:36:01.561Z,17.8
2022-10-15T09:46:13.954Z,17.9
2022-10-15T09:51:20.161Z,17.9
2022-10-15T09:56:26.374Z,17.9
2022-10-15T10:01:32.578Z,17.9
2022-10-15T10:06:38.792Z,17.9
2022-10-15T10:11:45.002Z,17.9
2022-10-15T10:16:51.205Z,17.9
2022-10-15T10:21:57.414Z,18.0
2022-10-15T10:32:09.832Z,17.9
2022-10-15T10:37:16.040Z,17.9
2022-10-15T10:42:22.251Z,17.9
2022-10-15T10:47:28.602Z,17.9
2022-10-15T10:52:34.680Z,17.9
2022-10-15T10:57:40.869Z,17.9
2022-10-15T11:02:47.082Z,17.9
2022-10-15T11:07:53.287Z,17.9
2022-10-15T11:12:59.572Z,18.0
2022-10-15T11:18:05.704Z,18.0
2022-10-15T11:23:10.947Z,18.0
2022-10-15T11:28:17.186Z,18.0
2022-10-15T11:33:23.371Z,18.1
2022-10-15T11:38:28.612Z,18.1
2022-10-15T11:43:34.819Z,18.2
2022-10-15T11:48:41.018Z,18.2
2022-10-15T11:53:47.230Z,18.3
2022-10-15T11:58:53.479Z,18.3
2022-10-15T12:03:59.709Z,18.4
2022-10-15T12:09:05.859Z,18.5
2022-10-15T12:14:12.062Z,18.5
2022-10-15T12:19:18.278Z,18.6
2022-10-15T12:24:24.479Z,18.7
2022-10-15T12:29:30.688Z,18.7
2022-10-15T12:34:36.897Z,18.8
2022-10-15T12:39:52.872Z,18.9
2022-10-15T12:44:49.316Z,19.0
2022-10-15T12:49:55.521Z,19.1
2022-10-15T12:55:02.758Z,19.2
2022-10-15T13:00:07.947Z,19.3
2022-10-15T13:05:14.148Z,19.5
2022-10-15T13:10:20.355Z,19.6
2022-10-15T13:15:26.565Z,19.7
2022-10-15T13:20:32.778Z,19.8
2022-10-15T13:25:38.008Z,19.9
2022-10-15T13:30:44.217Z,19.9
2022-10-15T13:35:50.431Z,20.0
2022-10-15T13:40:55.663Z,20.0
2022-10-15T13:46:01.883Z,20.0
2022-10-15T13:51:08.091Z,20.1
2022-10-15T13:56:14.290Z,20.1
2022-10-15T14:01:20.503Z,20.1
2022-10-15T14:06:26.721Z,20.2
2022-10-15T14:11:32.917Z,20.3
2022-10-15T14:16:39.134Z,20.4
2022-10-15T14:21:45.348Z,20.4
2022-10-15T14:26:51.538Z,20.4
2022-10-15T14:31:57.746Z,20.3
2022-10-15T14:37:04.008Z,20.3
2022-10-15T14:42:10.163Z,20.2
2022-10-15T14:47:16.376Z,20.0
2022-10-15T14:52:22.667Z,20.0
2022-10-15T14:57:28.803Z,19.9
2022-10-15T15:02:35.036Z,19.8
2022-10-15T15:07:41.202Z,19.8
2022-10-15T15:12:47.407Z,19.7
2022-10-15T15:17:53.617Z,19.7
2022-10-15T15:22:59.826Z,19.6
2022-10-15T15:28:05.059Z,19.6
2022-10-15T15:33:11.267Z,19.5
2022-10-15T15:38:16.504Z,19.4
2022-10-15T15:43:22.710Z,19.3
2022-10-15T15:48:27.941Z,19.2
2022-10-15T15:53:34.161Z,19.1
2022-10-15T15:58:40.353Z,19.1
2022-10-15T16:03:46.569Z,19.0
2022-10-15T16:08:52.790Z,18.9
2022-10-15T16:13:58.981Z,18.8
2022-10-15T16:19:05.188Z,18.7
2022-10-15T16:24:11.391Z,18.6
2022-10-15T16:29:17.598Z,18.5
2022-10-15T16:34:23.821Z,18.4
2022-10-15T16:39:30.048Z,18.2
2022-10-15T16:44:36.228Z,18.1
2022-10-15T16:49:42.462Z,17.9
2022-10-15T16:54:48.641Z,17.8
2022-10-15T16:59:54.858Z,17.7
2022-10-15T17:05:01.058Z,17.6
2022-10-15T17:10:10.798Z,17.4
2022-10-15T17:15:13.473Z,17.3
2022-10-15T17:20:19.687Z,17.1
2022-10-15T17:25:24.917Z,17.0
2022-10-15T17:30:31.134Z,16.8
2022-10-15T17:35:36.366Z,16.7
2022-10-15T17:40:42.620Z,16.6
2022-10-15T17:45:48.776Z,16.5
2022-10-15T17:50:54.991Z,16.4
2022-10-15T17:56:03.963Z,16.3
2022-10-15T18:01:07.399Z,16.2
2022-10-15T18:06:13.607Z,16.1
2022-10-15T18:11:19.814Z,16.1
2022-10-15T18:16:26.025Z,16.0
2022-10-15T18:21:32.235Z,15.9
2022-10-15T18:26:38.443Z,15.8
2022-10-15T18:31:44.654Z,15.8
2022-10-15T18:36:50.863Z,15.7
2022-10-15T18:41:57.077Z,15.7
2022-10-15T18:47:03.285Z,15.6
2022-10-15T18:52:21.434Z,15.6
2022-10-15T18:57:15.723Z,15.6
2022-10-15T19:02:21.920Z,15.6
2022-10-15T19:07:31.560Z,15.6
2022-10-15T19:12:34.338Z,15.5
2022-10-15T19:17:40.546Z,15.5
2022-10-15T19:22:45.791Z,15.5
2022-10-15T19:27:52.013Z,15.5
2022-10-15T19:32:57.255Z,15.5
2022-10-15T19:38:03.467Z,15.5
2022-10-15T19:43:09.670Z,15.5
2022-10-15T19:48:15.875Z,15.5
2022-10-15T19:53:22.099Z,15.5
2022-10-15T19:58:28.317Z,15.5
2022-10-15T20:08:40.734Z,15.4
2022-10-15T20:18:53.171Z,15.4
2022-10-15T20:23:59.373Z,15.4
2022-10-15T20:29:05.719Z,15.4
2022-10-15T20:34:11.810Z,15.4
2022-10-15T20:39:18.019Z,15.4
2022-10-15T20:44:24.360Z,15.4
2022-10-15T20:49:30.475Z,15.4
2022-10-15T20:54:36.670Z,15.4
2022-10-15T20:59:42.883Z,15.4
2022-10-15T21:04:49.096Z,15.4
2022-10-15T21:09:55.319Z,15.4
2022-10-15T21:15:01.538Z,15.4
2022-10-15T21:20:07.750Z,15.4
2022-10-15T21:25:13.966Z,15.4
2022-10-15T21:30:19.212Z,15.4
2022-10-15T21:35:25.422Z,15.4
2022-10-15T21:40:30.701Z,15.3
2022-10-15T21:45:36.863Z,15.3
2022-10-15T21:50:43.072Z,15.3
2022-10-15T21:55:49.299Z,15.3
2022-10-15T22:00:55.497Z,15.3
2022-10-15T22:06:01.716Z,15.3
2022-10-15T22:11:07.934Z,15.3
2022-10-15T22:16:14.142Z,15.3
2022-10-15T22:21:20.380Z,15.2
2022-10-15T22:26:26.577Z,15.2
2022-10-15T22:31:32.790Z,15.2
2022-10-15T22:36:39.036Z,15.2
2022-10-15T22:41:45.225Z,15.1
2022-10-15T22:46:51.445Z,15.1
2022-10-15T22:51:57.654Z,15.0
2022-10-15T22:57:03.885Z,15.0
2022-10-15T23:02:10.086Z,15.0
2022-10-15T23:07:16.303Z,15.0
2022-10-15T23:12:22.819Z,15.0
2022-10-15T23:17:28.736Z,14.9
2022-10-15T23:22:34.951Z,15.0
2022-10-15T23:27:40.186Z,14.9
2022-10-15T23:32:46.411Z,14.9
2022-10-15T23:37:52.616Z,14.9
2022-10-15T23:42:57.871Z,14.9
2022-10-15T23:48:04.071Z,14.9
2022-10-15T23:53:10.291Z,14.9
2022-10-15T23:58:16.501Z,14.9
